Time;durP1;ratioP1;P1;durP2;ratioP2;P2;SDS_P1;SDS_P2;PMS_P1;PMS_P2;Temp;Humidity;BMP_temperature;BMP_pressure;BME280_temperature;BME280_humidity;BME280_pressure;Samples;Min_cycle;Max_cycle;Signal;HPM_P1;HPM_P2
2023/03/13 00:00:59;;;;;;;4.60;1.30;;;;;;;14.20;100.00;96002.03;5045096;28;20084;-51
2023/03/13 00:03:28;;;;;;;3.72;1.30;;;;;;;14.30;100.00;96004.44;5044423;28;20080;-53
2023/03/13 00:05:57;;;;;;;2.60;1.25;;;;;;;14.22;100.00;96003.50;5042349;28;20096;-46
2023/03/13 00:08:25;;;;;;;1.98;1.27;;;;;;;14.28;100.00;95999.31;5044585;28;20080;-51
2023/03/13 00:10:55;;;;;;;2.20;0.98;;;;;;;14.43;98.51;95994.03;5043909;28;20076;-55
2023/03/13 00:13:23;;;;;;;2.97;1.17;;;;;;;14.36;95.22;95983.31;5038114;28;20095;-46
2023/03/13 00:16:00;;;;;;;3.97;0.95;;;;;;;14.15;98.21;95978.69;5044917;28;20752;-49
2023/03/13 00:18:28;;;;;;;6.20;1.23;;;;;;;14.39;94.24;95982.16;5043932;28;20088;-52
2023/03/13 00:21:00;;;;;;;6.35;1.20;;;;;;;14.42;92.15;95981.78;5042628;28;20081;-50
2023/03/13 00:23:29;;;;;;;2.50;1.13;;;;;;;14.35;92.96;95975.53;5041811;28;20073;-48
2023/03/13 00:25:59;;;;;;;2.25;1.15;;;;;;;14.22;93.63;95973.50;5044815;28;20092;-52
2023/03/13 00:28:29;;;;;;;1.80;1.10;;;;;;;14.26;92.53;95966.84;5047119;28;20168;-48
2023/03/13 00:31:03;;;;;;;1.98;0.95;;;;;;;14.23;92.13;95965.38;5046754;28;20080;-47
2023/03/13 00:33:32;;;;;;;3.72;1.50;;;;;;;14.08;94.20;95961.03;5042781;28;20088;-51
2023/03/13 00:36:01;;;;;;;1.88;1.17;;;;;;;13.86;98.05;95960.84;5043883;28;20103;-50
2023/03/13 00:38:29;;;;;;;3.15;1.30;;;;;;;13.58;99.54;95963.22;5045523;28;20564;-52
2023/03/13 00:41:03;;;;;;;2.63;1.00;;;;;;;13.84;99.53;95962.06;5044459;28;20081;-50
2023/03/13 00:43:32;;;;;;;2.17;0.98;;;;;;;13.96;93.44;95944.72;5043323;28;20574;-50
2023/03/13 00:46:01;;;;;;;1.15;0.82;;;;;;;13.81;92.96;95946.50;5042415;28;20087;-56
2023/03/13 00:48:30;;;;;;;1.98;1.02;;;;;;;14.02;89.62;95938.72;5041168;28;20084;-54
2023/03/13 00:50:58;;;;;;;2.22;0.93;;;;;;;13.71;92.12;95944.91;5044371;28;20107;-49
2023/03/13 00:53:26;;;;;;;3.65;1.00;;;;;;;13.63;93.15;95941.50;5043549;28;20677;-45
2023/03/13 00:55:56;;;;;;;5.45;1.05;;;;;;;13.46;95.52;95949.56;5044628;28;20092;-50
2023/03/13 00:58:27;;;;;;;2.10;1.08;;;;;;;13.56;93.91;95944.03;5039817;28;20439;-49
2023/03/13 01:00:55;;;;;;;3.97;1.65;;;;;;;13.43;95.32;95944.59;5046802;28;20085;-47
2023/03/13 01:03:25;;;;;;;3.17;0.85;;;;;;;13.37;98.48;95940.00;5044642;28;20629;-50
2023/03/13 01:06:00;;;;;;;2.50;1.10;;;;;;;13.41;98.06;95938.66;5043272;28;20087;-46
2023/03/13 01:08:29;;;;;;;1.92;1.05;;;;;;;13.44;97.21;95937.47;5042646;28;20077;-52
2023/03/13 01:10:58;;;;;;;4.60;0.90;;;;;;;13.12;100.00;95944.56;5042233;28;20092;-53
2023/03/13 01:13:29;;;;;;;2.85;1.00;;;;;;;13.28;100.00;95941.03;5042651;28;20546;-49
2023/03/13 01:15:57;;;;;;;;;;;;;;;13.32;100.00;95931.75;5042174;28;20085;-48
2023/03/13 01:18:25;;;;;;;2.13;1.13;;;;;;;13.12;100.00;95930.53;5039357;28;20410;-50
2023/03/13 01:20:54;;;;;;;2.40;1.10;;;;;;;13.14;100.00;95926.69;5045297;28;20080;-46
2023/03/13 01:23:22;;;;;;;2.15;1.00;;;;;;;13.13;100.00;95929.50;5044029;28;20103;-47
2023/03/13 01:25:50;;;;;;;1.60;0.93;;;;;;;13.24;100.00;95929.16;5043563;28;20234;-50
2023/03/13 01:28:19;;;;;;;1.23;0.93;;;;;;;13.27;100.00;95920.84;5043915;28;20489;-51
2023/03/13 01:30:48;;;;;;;2.17;0.90;;;;;;;13.28;100.00;95903.97;5043525;28;20541;-51
2023/03/13 01:33:17;;;;;;;1.23;0.87;;;;;;;13.34;97.00;95907.75;5042667;28;20113;-49
2023/03/13 01:35:45;;;;;;;4.13;1.00;;;;;;;13.20;99.82;95901.34;5044027;28;20770;-48
2023/03/13 01:38:14;;;;;;;2.53;1.20;;;;;;;12.91;99.20;95909.94;5041018;28;20085;-50
2023/03/13 01:40:44;;;;;;;1.73;1.05;;;;;;;12.89;100.00;95901.34;5045323;28;20088;-47
2023/03/13 01:43:18;;;;;;;2.88;0.90;;;;;;;13.03;100.00;95909.38;5044225;28;20080;-48
2023/03/13 01:46:02;;;;;;;3.38;1.35;;;;;;;13.15;100.00;95901.88;5044763;28;20099;-51
2023/03/13 01:48:37;;;;;;;2.38;0.90;;;;;;;13.02;100.00;95905.09;5043720;28;20689;-51
2023/03/13 01:51:09;;;;;;;4.20;0.90;;;;;;;12.09;100.00;95923.41;5049862;28;20088;-46
2023/03/13 01:53:39;;;;;;;2.00;0.80;;;;;;;12.08;100.00;95919.94;5045975;28;20099;-45
2023/03/13 01:56:11;;;;;;;2.50;0.93;;;;;;;12.28;100.00;95906.34;5048602;28;20126;-52
2023/03/13 01:58:40;;;;;;;1.90;1.02;;;;;;;12.00;100.00;95903.25;5047819;28;20458;-51
2023/03/13 02:01:09;;;;;;;1.60;0.90;;;;;;;12.31;100.00;95898.06;5047150;28;20139;-48
2023/03/13 02:03:38;;;;;;;3.65;1.08;;;;;;;12.11;100.00;95893.19;5047903;28;20091;-48
2023/03/13 02:06:07;;;;;;;2.88;1.02;;;;;;;12.48;100.00;95889.09;5047100;28;20095;-49
2023/03/13 02:08:37;;;;;;;2.30;0.90;;;;;;;12.55;100.00;95882.13;5046403;28;20073;-49
2023/03/13 02:11:14;;;;;;;1.73;1.00;;;;;;;12.68;100.00;95884.22;5048591;28;20505;-53
2023/03/13 02:13:43;;;;;;;1.52;0.82;;;;;;;12.43;100.00;95886.16;5048451;28;20077;-45
2023/03/13 02:16:12;;;;;;;1.33;0.70;;;;;;;12.47;100.00;95873.41;5047242;28;20118;-46
2023/03/13 02:18:41;;;;;;;0.73;0.70;;;;;;;12.56;100.00;95872.41;5047443;28;20084;-48
2023/03/13 02:21:14;;;;;;;1.30;1.10;;;;;;;12.27;100.00;95871.16;5048522;28;20075;-48
2023/03/13 02:23:49;;;;;;;1.52;0.77;;;;;;;12.22;100.00;95877.97;5046470;28;20562;-52
2023/03/13 02:26:19;;;;;;;2.95;0.90;;;;;;;12.28;100.00;95867.50;5048031;28;20080;-48
2023/03/13 02:28:49;;;;;;;3.80;0.90;;;;;;;12.33;100.00;95869.66;5045765;28;20069;-47
2023/03/13 02:31:17;;;;;;;2.42;1.02;;;;;;;12.08;100.00;95871.53;5044540;28;20075;-50
2023/03/13 02:33:45;;;;;;;1.38;0.88;;;;;;;12.37;100.00;95878.88;5048160;28;20110;-48
2023/03/13 02:36:15;;;;;;;1.08;0.60;;;;;;;12.30;100.00;95875.28;5046466;28;20087;-47
2023/03/13 02:38:47;;;;;;;1.50;0.80;;;;;;;12.32;100.00;95873.31;5046319;28;20537;-47
2023/03/13 02:41:16;;;;;;;2.13;1.00;;;;;;;12.15;100.00;95876.94;5047748;28;20107;-47
2023/03/13 02:43:45;;;;;;;1.23;0.65;;;;;;;11.89;100.00;95878.00;5044063;28;20091;-44
2023/03/13 02:46:16;;;;;;;1.37;0.97;;;;;;;11.54;100.00;95879.16;5046456;28;20076;-48
2023/03/13 02:48:46;;;;;;;1.13;0.85;;;;;;;11.40;100.00;95872.69;5046715;28;20081;-48
2023/03/13 02:51:20;;;;;;;1.95;0.80;;;;;;;12.18;100.00;95876.63;5048121;28;20081;-47
2023/03/13 02:53:49;;;;;;;1.88;0.90;;;;;;;11.86;100.00;95870.41;5042885;28;20060;-49
2023/03/13 02:56:21;;;;;;;1.00;0.73;;;;;;;12.09;100.00;95876.66;5046667;28;20073;-51
2023/03/13 02:58:50;;;;;;;1.40;0.75;;;;;;;11.61;100.00;95886.25;5047553;28;20084;-45
2023/03/13 03:01:19;;;;;;;2.33;0.77;;;;;;;11.80;100.00;95879.81;5046330;28;20072;-51
2023/03/13 03:03:47;;;;;;;2.58;0.80;;;;;;;11.67;100.00;95886.59;5046766;28;20522;-51
2023/03/13 03:06:16;;;;;;;1.63;0.75;;;;;;;12.33;100.00;95880.22;5046401;28;20529;-50
2023/03/13 03:08:44;;;;;;;3.17;0.70;;;;;;;11.84;100.00;95882.97;5046994;28;20072;-51
2023/03/13 03:11:13;;;;;;;2.03;0.85;;;;;;;12.59;100.00;95874.66;5037919;28;20473;-46
2023/03/13 03:13:41;;;;;;;0.93;0.70;;;;;;;12.49;100.00;95876.69;5043445;28;20069;-46
2023/03/13 03:16:13;;;;;;;1.65;0.80;;;;;;;12.85;99.17;95877.06;5045216;28;20088;-48
2023/03/13 03:18:42;;;;;;;0.63;0.60;;;;;;;12.69;100.00;95879.75;5044875;28;20080;-50
2023/03/13 03:21:10;;;;;;;1.60;0.70;;;;;;;12.27;100.00;95879.06;5047788;28;20095;-50
2023/03/13 03:23:39;;;;;;;2.80;0.70;;;;;;;12.21;100.00;95885.03;5039420;28;20079;-51
2023/03/13 03:26:07;;;;;;;0.90;0.60;;;;;;;12.50;100.00;95886.28;5046183;28;20128;-46
2023/03/13 03:28:36;;;;;;;1.92;0.85;;;;;;;12.95;96.27;95884.78;5045235;28;20068;-50
2023/03/13 03:31:05;;;;;;;1.08;0.70;;;;;;;13.05;94.70;95882.75;5045387;28;20121;-49
2023/03/13 03:33:35;;;;;;;0.95;0.70;;;;;;;12.75;98.13;95887.03;5042294;28;20072;-48
2023/03/13 03:36:04;;;;;;;0.95;0.70;;;;;;;12.84;100.00;95883.34;5041516;28;20135;-53
2023/03/13 03:38:33;;;;;;;1.03;0.70;;;;;;;12.85;97.24;95889.47;5039661;28;20083;-48
2023/03/13 03:41:01;;;;;;;1.05;0.77;;;;;;;12.72;100.00;95888.19;5042136;28;20542;-50
2023/03/13 03:43:30;;;;;;;1.27;0.70;;;;;;;12.28;100.00;95890.47;5040206;28;20526;-50
2023/03/13 03:45:58;;;;;;;2.47;0.73;;;;;;;12.64;100.00;95885.59;5041281;28;20541;-48
2023/03/13 03:48:26;;;;;;;1.00;0.80;;;;;;;12.25;100.00;95878.44;5041511;28;20064;-52
2023/03/13 03:50:56;;;;;;;2.53;0.90;;;;;;;12.74;100.00;95872.16;5039942;28;20518;-45
2023/03/13 03:53:25;;;;;;;2.87;0.80;;;;;;;12.82;99.00;95875.56;5045109;28;20084;-48
2023/03/13 03:55:53;;;;;;;1.02;0.70;;;;;;;12.63;100.00;95865.41;5039943;28;20508;-54
2023/03/13 03:58:22;;;;;;;1.35;0.80;;;;;;;12.82;98.26;95858.88;5040997;28;20072;-49
2023/03/13 04:00:50;;;;;;;1.45;0.70;;;;;;;12.52;98.22;95861.31;5043214;28;20073;-50
2023/03/13 04:03:18;;;;;;;1.05;0.70;;;;;;;12.95;95.19;95853.84;5044931;28;20083;-48
2023/03/13 04:05:47;;;;;;;0.93;0.63;;;;;;;12.65;100.00;95849.38;5043602;28;20526;-52
2023/03/13 04:08:16;;;;;;;1.52;0.70;;;;;;;12.87;96.97;95843.31;5042565;28;20079;-49
2023/03/13 04:10:45;;;;;;;1.83;0.77;;;;;;;12.25;100.00;95840.56;5045054;28;20080;-48
2023/03/13 04:13:13;;;;;;;0.80;0.60;;;;;;;13.08;91.64;95832.09;5043738;28;20521;-51
2023/03/13 04:15:42;;;;;;;1.25;0.73;;;;;;;13.17;89.86;95817.78;5041992;28;20110;-51
2023/03/13 04:18:10;;;;;;;0.98;0.80;;;;;;;12.28;100.00;95821.75;5044354;28;20095;-48
2023/03/13 04:20:38;;;;;;;0.82;0.60;;;;;;;12.62;97.36;95824.06;5043807;28;20086;-46
2023/03/13 04:23:07;;;;;;;0.75;0.60;;;;;;;12.98;92.92;95821.75;5041699;28;20153;-48
2023/03/13 04:25:37;;;;;;;0.75;0.60;;;;;;;13.02;94.74;95807.16;5042751;28;20484;-49
2023/03/13 04:28:05;;;;;;;1.08;0.70;;;;;;;13.05;90.08;95804.16;5042734;28;20074;-47
2023/03/13 04:30:34;;;;;;;0.95;0.60;;;;;;;12.92;91.97;95811.03;5042069;28;20061;-48
2023/03/13 04:33:02;;;;;;;0.88;0.50;;;;;;;12.92;90.83;95798.63;5044061;28;20463;-46
2023/03/13 04:35:31;;;;;;;0.75;0.70;;;;;;;12.96;88.71;95788.50;5041864;28;20084;-48
2023/03/13 04:38:00;;;;;;;0.90;0.75;;;;;;;12.97;92.45;95791.00;5044089;28;20087;-45
2023/03/13 04:40:28;;;;;;;0.60;0.60;;;;;;;12.99;91.02;95783.69;5045307;28;20060;-49
2023/03/13 04:42:58;;;;;;;0.52;0.47;;;;;;;13.36;82.29;95779.47;5041783;28;20088;-51
2023/03/13 04:45:26;;;;;;;1.37;0.53;;;;;;;13.24;85.52;95787.00;5043108;28;20486;-53
2023/03/13 04:47:55;;;;;;;1.15;0.77;;;;;;;13.24;84.76;95775.59;5044000;28;20120;-47
2023/03/13 04:50:23;;;;;;;2.05;0.95;;;;;;;13.37;83.39;95773.16;5042069;28;20080;-46
2023/03/13 04:52:51;;;;;;;0.52;0.50;;;;;;;13.00;85.17;95765.97;5038853;28;20072;-47
2023/03/13 04:55:20;;;;;;;2.25;0.77;;;;;;;13.02;87.71;95772.75;5040582;28;20085;-48
2023/03/13 04:57:49;;;;;;;1.38;0.60;;;;;;;13.13;82.88;95762.75;5039423;28;20080;-53
2023/03/13 05:00:19;;;;;;;0.68;0.60;;;;;;;12.72;86.07;95765.66;5046396;28;20065;-50
2023/03/13 05:02:47;;;;;;;0.57;0.57;;;;;;;13.06;85.65;95759.97;5046961;28;20080;-47
2023/03/13 05:05:16;;;;;;;0.52;0.47;;;;;;;12.89;84.84;95759.28;5047383;28;20080;-50
2023/03/13 05:07:44;;;;;;;1.17;0.45;;;;;;;13.05;82.62;95743.28;5043824;28;20099;-50
2023/03/13 05:10:13;;;;;;;1.02;0.63;;;;;;;13.15;85.58;95755.47;5039339;28;20111;-53
2023/03/13 05:12:41;;;;;;;2.05;0.50;;;;;;;13.50;79.63;95756.66;5040338;28;20073;-48
2023/03/13 05:15:10;;;;;;;1.25;0.60;;;;;;;13.44;76.05;95750.25;5041577;28;20073;-50
2023/03/13 05:17:39;;;;;;;1.10;0.47;;;;;;;13.74;74.25;95739.69;5039531;28;20084;-52
2023/03/13 05:20:10;;;;;;;0.83;0.50;;;;;;;13.83;74.29;95746.53;5050302;28;20079;-49
2023/03/13 05:22:38;;;;;;;0.60;0.50;;;;;;;13.65;75.26;95746.09;5047111;28;20075;-48
2023/03/13 05:25:07;;;;;;;1.02;0.50;;;;;;;13.78;73.39;95733.84;5043733;28;20561;-46
2023/03/13 05:27:36;;;;;;;1.05;0.70;;;;;;;14.02;71.39;95740.69;5046564;28;20578;-51
2023/03/13 05:30:05;;;;;;;1.10;0.70;;;;;;;14.16;71.46;95738.22;5048078;28;20075;-53
2023/03/13 05:32:33;;;;;;;0.93;0.50;;;;;;;13.80;73.44;95727.53;5045744;28;20064;-48
2023/03/13 05:35:03;;;;;;;1.13;0.68;;;;;;;14.29;69.49;95722.47;5049498;28;20088;-48
2023/03/13 05:37:32;;;;;;;2.40;0.70;;;;;;;14.28;68.12;95725.31;5042945;28;20568;-50
2023/03/13 05:40:00;;;;;;;1.10;0.80;;;;;;;14.14;67.96;95721.66;5044905;28;20079;-52
2023/03/13 05:42:28;;;;;;;1.77;0.80;;;;;;;14.41;67.89;95718.31;5042888;28;20081;-51
2023/03/13 05:44:57;;;;;;;2.88;1.40;;;;;;;14.63;65.33;95723.72;5048088;28;20067;-52
2023/03/13 05:47:25;;;;;;;2.58;0.90;;;;;;;14.61;64.70;95707.16;5051194;28;20084;-52
2023/03/13 05:49:53;;;;;;;2.63;0.80;;;;;;;14.89;62.26;95702.72;5050870;28;20088;-51
2023/03/13 05:52:23;;;;;;;1.08;0.70;;;;;;;14.22;67.93;95701.19;5050964;28;20104;-53
2023/03/13 05:54:51;;;;;;;1.52;0.80;;;;;;;14.00;68.90;95720.69;5050757;28;20073;-48
2023/03/13 05:57:19;;;;;;;1.60;0.77;;;;;;;14.12;70.54;95705.97;5051172;28;20080;-52
2023/03/13 05:59:48;;;;;;;1.95;0.88;;;;;;;14.02;68.76;95695.63;5050936;28;20084;-47
2023/03/13 06:02:17;;;;;;;1.00;0.65;;;;;;;14.10;71.23;95693.88;5050640;28;20080;-51
2023/03/13 06:04:45;;;;;;;2.47;0.88;;;;;;;14.53;68.18;95686.06;5049928;28;20456;-49
2023/03/13 06:07:13;;;;;;;1.58;0.80;;;;;;;14.64;66.47;95698.81;5052058;28;20081;-49
2023/03/13 06:09:43;;;;;;;2.05;0.85;;;;;;;14.66;65.75;95700.28;5052825;28;20091;-54
2023/03/13 06:12:12;;;;;;;1.27;0.70;;;;;;;15.22;62.76;95686.28;5050959;28;20076;-49
2023/03/13 06:14:40;;;;;;;1.63;0.77;;;;;;;14.43;66.00;95697.75;5050108;28;20773;-51
2023/03/13 06:17:08;;;;;;;0.90;0.65;;;;;;;14.70;66.73;95703.38;5050400;28;20079;-51
2023/03/13 06:19:37;;;;;;;2.13;0.70;;;;;;;14.40;70.66;95689.34;5048635;28;20077;-52
2023/03/13 06:22:05;;;;;;;0.88;0.60;;;;;;;14.93;68.76;95674.81;5050393;28;20553;-51
2023/03/13 06:24:34;;;;;;;2.42;0.60;;;;;;;15.05;63.99;95677.75;5050622;28;20081;-44
2023/03/13 06:27:03;;;;;;;1.15;0.70;;;;;;;15.09;63.18;95672.91;5050527;28;20087;-48
2023/03/13 06:29:31;;;;;;;1.33;0.68;;;;;;;15.02;63.23;95661.41;5050254;28;20530;-50
2023/03/13 06:32:00;;;;;;;1.13;0.68;;;;;;;14.79;64.74;95665.06;5046268;28;20102;-52
2023/03/13 06:34:28;;;;;;;1.08;0.73;;;;;;;15.72;58.79;95664.97;5051462;28;20076;-49
2023/03/13 06:36:57;;;;;;;1.10;0.70;;;;;;;15.61;58.73;95656.50;5049821;28;20080;-48
2023/03/13 06:39:26;;;;;;;2.20;0.80;;;;;;;15.64;58.49;95656.09;5050620;28;20545;-53
2023/03/13 06:41:54;;;;;;;1.33;0.70;;;;;;;15.94;58.45;95657.72;5049637;28;20526;-50
2023/03/13 06:44:24;;;;;;;1.13;0.68;;;;;;;16.11;57.08;95657.19;5049809;28;20088;-48
2023/03/13 06:46:52;;;;;;;1.63;0.70;;;;;;;16.26;55.98;95651.72;5049848;28;20084;-50
2023/03/13 06:49:20;;;;;;;1.35;0.80;;;;;;;15.97;56.63;95658.16;5052191;28;20107;-50
2023/03/13 06:51:49;;;;;;;2.13;0.80;;;;;;;16.35;54.90;95650.53;5049408;28;20072;-48
2023/03/13 06:54:17;;;;;;;1.58;0.68;;;;;;;16.19;56.10;95658.84;5049274;28;20084;-52
2023/03/13 06:56:45;;;;;;;1.27;0.70;;;;;;;15.97;57.49;95657.34;5049144;28;20115;-50
2023/03/13 06:59:13;;;;;;;0.63;0.60;;;;;;;16.04;58.17;95664.31;5049812;28;20494;-48
2023/03/13 07:01:43;;;;;;;1.42;0.80;;;;;;;15.96;60.88;95661.81;5049260;28;20095;-52
2023/03/13 07:04:12;;;;;;;1.10;0.70;;;;;;;16.12;59.63;95661.47;5049715;28;20590;-48
2023/03/13 07:06:41;;;;;;;2.85;0.90;;;;;;;16.04;62.57;95658.19;5048506;28;20080;-49
2023/03/13 07:09:10;;;;;;;2.28;1.00;;;;;;;15.85;60.65;95665.84;5052962;28;20084;-51
2023/03/13 07:11:38;;;;;;;3.55;0.63;;;;;;;16.04;62.29;95664.31;5047589;28;20083;-48
2023/03/13 07:14:06;;;;;;;1.92;0.77;;;;;;;16.85;57.49;95645.72;5049763;28;20080;-46
2023/03/13 07:16:46;;;;;;;2.35;0.95;;;;;;;16.68;57.09;95639.09;5049198;28;20076;-46
2023/03/13 07:19:14;;;;;;;1.67;0.90;;;;;;;16.78;57.58;95636.91;5049645;28;20076;-50
2023/03/13 07:21:42;;;;;;;2.50;0.88;;;;;;;16.37;58.84;95645.81;5049312;28;20095;-46
2023/03/13 07:24:11;;;;;;;2.25;0.77;;;;;;;16.34;57.88;95658.69;5049210;28;20076;-50
2023/03/13 07:26:39;;;;;;;2.65;0.70;;;;;;;16.57;58.57;95647.69;5049103;28;20119;-52
2023/03/13 07:29:21;;;;;;;1.60;0.80;;;;;;;16.72;57.43;95648.31;5049702;28;20091;-45
2023/03/13 07:31:51;;;;;;;3.20;1.05;;;;;;;16.56;56.90;95652.22;5047018;28;20203;-51
2023/03/13 07:34:19;;;;;;;3.70;1.00;;;;;;;16.54;55.45;95653.41;5046940;28;20083;-48
2023/03/13 07:36:47;;;;;;;3.25;1.15;;;;;;;16.85;55.26;95647.56;5049178;28;20087;-46
2023/03/13 07:39:16;;;;;;;2.42;1.15;;;;;;;16.84;53.79;95660.06;5049419;28;20112;-47
2023/03/13 07:41:44;;;;;;;5.30;1.10;;;;;;;17.14;54.29;95654.34;5048807;28;20087;-50
2023/03/13 07:44:12;;;;;;;2.80;1.20;;;;;;;17.36;54.44;95659.44;5048371;28;20084;-50
2023/03/13 07:46:40;;;;;;;4.25;1.00;;;;;;;17.54;54.94;95654.28;5048659;28;20557;-53
2023/03/13 07:49:10;;;;;;;7.18;1.20;;;;;;;16.85;61.22;95663.53;5049433;28;20095;-50
2023/03/13 07:51:39;;;;;;;2.20;1.08;;;;;;;17.08;61.76;95657.81;5048980;28;20076;-51
2023/03/13 07:54:11;;;;;;;3.42;1.00;;;;;;;16.99;60.67;95637.72;5049090;28;20084;-49
2023/03/13 07:56:40;;;;;;;4.60;1.48;;;;;;;16.93;61.42;95638.53;5049148;28;20077;-52
2023/03/13 07:59:08;;;;;;;3.33;1.02;;;;;;;17.10;58.71;95631.78;5049205;28;20080;-47
2023/03/13 08:01:37;;;;;;;3.40;1.40;;;;;;;16.99;60.75;95635.88;5047457;28;20081;-52
2023/03/13 08:04:05;;;;;;;1.67;0.93;;;;;;;16.95;61.99;95631.19;5048488;28;20080;-53
2023/03/13 08:06:35;;;;;;;3.15;0.80;;;;;;;17.55;59.11;95621.28;5047527;28;20506;-50
2023/03/13 08:09:04;;;;;;;1.38;0.80;;;;;;;17.82;55.83;95622.03;5050057;28;20549;-51
2023/03/13 08:11:32;;;;;;;3.33;1.15;;;;;;;18.04;54.65;95622.59;5048863;28;20095;-51
2023/03/13 08:14:01;;;;;;;2.13;0.95;;;;;;;17.99;55.42;95625.06;5046109;28;20510;-45
2023/03/13 08:16:32;;;;;;;1.77;0.90;;;;;;;18.80;52.78;95618.31;5048247;28;20601;-47
2023/03/13 08:19:04;;;;;;;2.05;1.00;;;;;;;18.35;55.32;95624.50;5046901;28;20083;-46
2023/03/13 08:21:36;;;;;;;2.13;1.00;;;;;;;18.91;52.20;95623.75;5048231;28;20088;-49
2023/03/13 08:24:06;;;;;;;2.60;1.00;;;;;;;19.08;50.87;95629.38;5047947;28;20076;-50
2023/03/13 08:26:35;;;;;;;3.65;1.30;;;;;;;18.93;51.83;95621.69;5048238;28;20080;-46
2023/03/13 08:29:05;;;;;;;2.58;1.08;;;;;;;18.98;51.11;95621.84;5048749;28;20081;-49
2023/03/13 08:31:35;;;;;;;3.33;1.85;;;;;;;18.59;51.86;95633.59;5048426;28;20455;-50
2023/03/13 08:34:03;;;;;;;4.05;1.17;;;;;;;19.42;50.71;95635.25;5047261;28;20085;-54
2023/03/13 08:36:33;;;;;;;3.38;1.13;;;;;;;19.91;49.65;95638.88;5047877;28;20085;-51
2023/03/13 08:39:05;;;;;;;2.28;0.90;;;;;;;19.77;48.77;95626.69;5047892;28;20084;-46
2023/03/13 08:41:35;;;;;;;2.45;0.93;;;;;;;19.85;47.64;95634.41;5048288;28;20467;-52
2023/03/13 08:44:04;;;;;;;4.43;0.90;;;;;;;20.21;47.55;95628.25;5042916;28;20080;-51
2023/03/13 08:46:34;;;;;;;2.78;0.90;;;;;;;19.92;47.09;95629.81;5048266;28;20087;-48
2023/03/13 08:49:04;;;;;;;1.70;0.70;;;;;;;20.25;47.15;95629.41;5043903;28;20084;-52
2023/03/13 08:51:33;;;;;;;3.23;1.00;;;;;;;19.86;46.46;95636.88;5046950;28;20080;-51
2023/03/13 08:54:04;;;;;;;2.08;0.90;;;;;;;19.67;48.56;95637.91;5044120;28;20084;-52
2023/03/13 08:56:33;;;;;;;1.27;0.82;;;;;;;20.17;48.07;95632.41;5044785;28;20053;-48
2023/03/13 08:59:03;;;;;;;1.40;0.80;;;;;;;20.73;48.56;95620.56;5044616;28;20088;-53
2023/03/13 09:01:33;;;;;;;2.33;0.60;;;;;;;20.19;48.87;95622.28;5048357;28;20076;-53
2023/03/13 09:04:01;;;;;;;1.60;0.70;;;;;;;21.09;45.67;95608.88;5045320;28;20085;-46
2023/03/13 09:06:32;;;;;;;1.70;0.60;;;;;;;20.76;45.14;95614.75;5047665;28;20077;-45
2023/03/13 09:09:00;;;;;;;1.77;0.60;;;;;;;20.47;46.01;95613.66;5051006;28;20103;-51
2023/03/13 09:11:30;;;;;;;0.85;0.50;;;;;;;20.38;44.53;95601.66;5047669;28;20076;-49
2023/03/13 09:13:59;;;;;;;0.70;0.60;;;;;;;20.15;45.18;95599.69;5047433;28;20132;-47
2023/03/13 09:16:28;;;;;;;2.92;0.70;;;;;;;20.33;43.27;95596.97;5047776;28;20084;-48
2023/03/13 09:18:57;;;;;;;1.08;0.73;;;;;;;21.04;43.53;95594.50;5046539;28;20077;-52
2023/03/13 09:21:27;;;;;;;2.03;0.65;;;;;;;20.85;43.78;95580.38;5048193;28;20139;-53
2023/03/13 09:23:56;;;;;;;1.73;0.65;;;;;;;21.24;43.37;95581.59;5047146;28;20084;-49
2023/03/13 09:26:25;;;;;;;0.75;0.50;;;;;;;20.80;43.44;95594.47;5047582;28;20087;-45
2023/03/13 09:28:55;;;;;;;1.88;0.70;;;;;;;20.66;45.91;95592.22;5047219;28;20077;-54
2023/03/13 09:31:24;;;;;;;1.27;0.50;;;;;;;20.77;45.26;95594.94;5047969;28;20076;-52
2023/03/13 09:33:53;;;;;;;0.80;0.52;;;;;;;21.59;44.38;95583.47;5047608;28;20122;-47
2023/03/13 09:36:23;;;;;;;0.82;0.55;;;;;;;21.28;45.05;95584.63;5052453;28;20547;-55
2023/03/13 09:38:52;;;;;;;1.17;0.50;;;;;;;20.89;45.02;95591.44;5047057;28;20084;-54
2023/03/13 09:41:23;;;;;;;1.67;0.43;;;;;;;21.26;45.06;95576.78;5044775;28;20076;-53
2023/03/13 09:43:56;;;;;;;2.47;0.50;;;;;;;21.08;44.26;95571.56;5045997;28;20518;-53
2023/03/13 09:46:27;;;;;;;0.95;0.40;;;;;;;20.71;45.50;95568.22;5048291;28;20087;-54
2023/03/13 09:48:57;;;;;;;0.85;0.50;;;;;;;22.11;43.27;95563.84;5047132;28;20085;-51
2023/03/13 09:51:28;;;;;;;1.58;0.50;;;;;;;22.11;42.87;95567.34;5048011;28;20091;-49
2023/03/13 09:53:59;;;;;;;1.00;0.50;;;;;;;22.07;40.59;95565.41;5046791;28;20073;-48
2023/03/13 09:56:31;;;;;;;1.25;0.50;;;;;;;22.59;40.72;95558.06;5047836;28;20480;-50
2023/03/13 09:59:05;;;;;;;1.20;0.40;;;;;;;22.54;41.11;95557.16;5039497;28;20081;-45
2023/03/13 10:01:36;;;;;;;0.80;0.65;;;;;;;22.62;40.29;95548.72;5045674;28;20084;-54
2023/03/13 10:04:08;;;;;;;1.92;0.60;;;;;;;23.13;39.90;95553.06;5047261;28;20077;-51
2023/03/13 10:06:40;;;;;;;1.48;0.50;;;;;;;23.61;39.52;95546.22;5050195;28;20492;-49
2023/03/13 10:09:19;;;;;;;2.90;0.50;;;;;;;22.46;42.34;95545.72;5052596;28;20549;-49
2023/03/13 10:11:53;;;;;;;1.77;0.40;;;;;;;22.37;41.69;95530.28;5048366;28;20081;-52
2023/03/13 10:14:29;;;;;;;0.85;0.40;;;;;;;22.59;40.65;95530.38;5055421;28;20077;-51
2023/03/13 10:17:02;;;;;;;1.17;0.50;;;;;;;23.09;39.91;95530.41;5049619;28;20080;-50
2023/03/13 10:19:36;;;;;;;2.92;0.35;;;;;;;22.49;41.06;95526.44;5050874;28;20085;-53
2023/03/13 10:22:12;;;;;;;0.60;0.30;;;;;;;22.48;39.62;95518.66;5049142;28;20073;-47
2023/03/13 10:24:46;;;;;;;1.83;0.40;;;;;;;22.91;39.91;95518.00;5049799;28;20084;-49
2023/03/13 10:27:15;;;;;;;0.70;0.30;;;;;;;22.63;41.35;95518.06;5051108;28;20076;-51
2023/03/13 10:29:45;;;;;;;1.40;0.50;;;;;;;22.17;42.06;95522.66;5049320;28;20087;-47
2023/03/13 10:32:15;;;;;;;2.33;0.30;;;;;;;22.50;41.09;95506.59;5048288;28;20076;-48
2023/03/13 10:34:51;;;;;;;;;;;;;;;23.34;39.95;95500.38;5047782;28;20084;-47
2023/03/13 10:37:22;;;;;;;1.73;0.40;;;;;;;23.24;39.61;95504.81;5050950;28;19956;-52
2023/03/13 10:39:51;;;;;;;0.93;0.40;;;;;;;23.43;39.66;95509.66;5049813;28;20095;-50
2023/03/13 10:42:27;;;;;;;2.00;0.30;;;;;;;22.87;40.62;95514.16;5050610;28;20102;-49
2023/03/13 10:44:59;;;;;;;0.82;0.43;;;;;;;24.16;39.07;95493.31;5049703;28;20088;-50
2023/03/13 10:47:27;;;;;;;2.75;0.45;;;;;;;23.76;38.55;95488.28;5050205;28;20552;-51
2023/03/13 10:49:57;;;;;;;2.38;0.50;;;;;;;23.94;38.04;95485.25;5049379;28;22958;-47
2023/03/13 10:52:31;;;;;;;1.10;0.30;;;;;;;23.23;39.67;95493.22;5050046;28;20080;-49
2023/03/13 10:55:01;;;;;;;0.25;0.20;;;;;;;22.83;39.58;95486.16;5047792;28;20081;-50
2023/03/13 10:57:31;;;;;;;1.52;0.30;;;;;;;24.59;37.01;95475.38;5048937;28;20549;-53
2023/03/13 11:00:10;;;;;;;2.03;0.60;;;;;;;24.27;38.55;95486.13;5049241;28;20530;-46
2023/03/13 11:02:38;;;;;;;0.98;0.40;;;;;;;25.15;37.38;95478.50;5046884;28;20076;-47
2023/03/13 11:05:31;;;;;;;2.20;0.50;;;;;;;24.99;36.78;95474.88;5049799;28;20073;-48
2023/03/13 11:08:11;;;;;;;0.55;0.25;;;;;;;24.00;39.91;95473.47;5049223;28;20091;-50
2023/03/13 11:10:51;;;;;;;0.65;0.20;;;;;;;23.91;41.50;95459.63;5049445;28;20084;-50
2023/03/13 11:13:28;;;;;;;2.25;0.38;;;;;;;22.18;43.64;95465.19;5050120;28;20077;-48
2023/03/13 11:16:17;;;;;;;1.42;0.20;;;;;;;22.81;43.84;95472.13;5045894;28;20076;-48
2023/03/13 11:19:07;;;;;;;0.47;0.20;;;;;;;23.16;44.20;95476.47;5048954;28;20086;-51
2023/03/13 11:21:42;;;;;;;0.20;0.20;;;;;;;22.83;43.17;95464.66;5049390;28;20084;-49
2023/03/13 11:24:15;;;;;;;0.22;0.17;;;;;;;22.55;43.72;95462.88;5044916;28;20122;-48
2023/03/13 11:26:49;;;;;;;0.32;0.20;;;;;;;22.35;44.40;95463.34;5049331;28;20087;-48
2023/03/13 11:29:37;;;;;;;0.40;0.20;;;;;;;22.51;44.07;95470.59;5049637;28;20076;-50
2023/03/13 11:32:14;;;;;;;1.63;0.30;;;;;;;22.47;46.05;95474.84;5050212;28;20084;-48
2023/03/13 11:34:46;;;;;;;0.38;0.38;;;;;;;22.39;46.22;95453.75;5049770;28;20068;-49
2023/03/13 11:37:16;;;;;;;0.20;0.20;;;;;;;22.67;45.06;95452.84;5048334;28;20068;-47
2023/03/13 11:39:52;;;;;;;0.50;0.40;;;;;;;22.34;46.05;95455.53;5047047;28;20069;-49
2023/03/13 11:42:48;;;;;;;2.13;0.30;;;;;;;22.61;45.07;95442.25;5049341;28;20640;-45
2023/03/13 11:45:31;;;;;;;0.52;0.30;;;;;;;22.67;44.29;95444.78;5043862;28;20080;-46